sensor_id;sensor_type;location;lat;lon;timestamp;P1;P2;P0
34240;PMS7003;20503;50.200;19.508;2023-04-24T00:01:31;14;12;10
34240;PMS7003;20503;50.200;19.508;2023-04-24T00:06:39;16;12;9
34240;PMS7003;20503;50.200;19.508;2023-04-24T00:11:47;13;11;8
34240;PMS7003;20503;50.200;19.508;2023-04-24T00:16:55;10;10;7
34240;PMS7003;20503;50.200;19.508;2023-04-24T00:22:03;10;9;7
34240;PMS7003;20503;50.200;19.508;2023-04-24T00:27:10;9;9;7
34240;PMS7003;20503;50.200;19.508;2023-04-24T00:32:18;12;10;8
34240;PMS7003;20503;50.200;19.508;2023-04-24T00:37:26;13;8;7
34240;PMS7003;20503;50.200;19.508;2023-04-24T00:42:33;19;13;8
34240;PMS7003;20503;50.200;19.508;2023-04-24T00:47:40;13;10;7
34240;PMS7003;20503;50.200;19.508;2023-04-24T00:52:48;10;9;7
34240;PMS7003;20503;50.200;19.508;2023-04-24T00:57:56;11;10;8
34240;PMS7003;20503;50.200;19.508;2023-04-24T01:03:03;9;9;8
34240;PMS7003;20503;50.200;19.508;2023-04-24T01:08:11;11;8;7
34240;PMS7003;20503;50.200;19.508;2023-04-24T01:13:21;12;8;7
34240;PMS7003;20503;50.200;19.508;2023-04-24T01:18:25;9;9;7
34240;PMS7003;20503;50.200;19.508;2023-04-24T01:23:33;10;8;7
34240;PMS7003;20503;50.200;19.508;2023-04-24T01:28:41;8;7;5
34240;PMS7003;20503;50.200;19.508;2023-04-24T01:33:49;11;9;7
34240;PMS7003;20503;50.200;19.508;2023-04-24T01:38:56;10;9;8
34240;PMS7003;20503;50.200;19.508;2023-04-24T01:44:04;10;8;5
34240;PMS7003;20503;50.200;19.508;2023-04-24T01:49:11;11;9;7
34240;PMS7003;20503;50.200;19.508;2023-04-24T01:54:19;10;8;7
34240;PMS7003;20503;50.200;19.508;2023-04-24T01:59:26;8;8;6
34240;PMS7003;20503;50.200;19.508;2023-04-24T02:04:34;10;10;7
34240;PMS7003;20503;50.200;19.508;2023-04-24T02:09:41;12;8;7
34240;PMS7003;20503;50.200;19.508;2023-04-24T02:14:49;7;7;6
34240;PMS7003;20503;50.200;19.508;2023-04-24T02:19:57;13;10;7
34240;PMS7003;20503;50.200;19.508;2023-04-24T02:25:04;10;8;6
34240;PMS7003;20503;50.200;19.508;2023-04-24T02:30:12;9;9;7
34240;PMS7003;20503;50.200;19.508;2023-04-24T02:35:19;7;7;5
34240;PMS7003;20503;50.200;19.508;2023-04-24T02:40:26;10;8;6
34240;PMS7003;20503;50.200;19.508;2023-04-24T02:45:34;8;8;6
34240;PMS7003;20503;50.200;19.508;2023-04-24T02:50:41;7;7;5
34240;PMS7003;20503;50.200;19.508;2023-04-24T02:55:49;7;7;4
34240;PMS7003;20503;50.200;19.508;2023-04-24T03:00:56;7;7;4
34240;PMS7003;20503;50.200;19.508;2023-04-24T03:06:03;8;8;6
34240;PMS7003;20503;50.200;19.508;2023-04-24T03:11:11;10;9;6
34240;PMS7003;20503;50.200;19.508;2023-04-24T03:16:19;11;7;6
34240;PMS7003;20503;50.200;19.508;2023-04-24T03:21:25;10;7;5
34240;PMS7003;20503;50.200;19.508;2023-04-24T03:26:33;12;8;6
34240;PMS7003;20503;50.200;19.508;2023-04-24T03:31:41;12;11;6
34240;PMS7003;20503;50.200;19.508;2023-04-24T03:36:48;10;9;7
34240;PMS7003;20503;50.200;19.508;2023-04-24T03:41:55;10;10;6
34240;PMS7003;20503;50.200;19.508;2023-04-24T03:47:03;10;9;6
34240;PMS7003;20503;50.200;19.508;2023-04-24T03:52:10;10;9;7
34240;PMS7003;20503;50.200;19.508;2023-04-24T03:57:18;14;10;7
34240;PMS7003;20503;50.200;19.508;2023-04-24T04:02:26;9;9;8
34240;PMS7003;20503;50.200;19.508;2023-04-24T04:07:33;10;9;8
34240;PMS7003;20503;50.200;19.508;2023-04-24T04:12:40;10;8;6
34240;PMS7003;20503;50.200;19.508;2023-04-24T04:17:48;7;7;6
34240;PMS7003;20503;50.200;19.508;2023-04-24T04:22:56;11;10;8
34240;PMS7003;20503;50.200;19.508;2023-04-24T04:28:03;8;8;6
34240;PMS7003;20503;50.200;19.508;2023-04-24T04:33:10;10;8;7
34240;PMS7003;20503;50.200;19.508;2023-04-24T04:38:18;11;8;5
34240;PMS7003;20503;50.200;19.508;2023-04-24T04:43:27;9;6;5
34240;PMS7003;20503;50.200;19.508;2023-04-24T04:48:34;12;11;6
34240;PMS7003;20503;50.200;19.508;2023-04-24T04:53:41;7;7;6
34240;PMS7003;20503;50.200;19.508;2023-04-24T04:58:49;8;7;5
34240;PMS7003;20503;50.200;19.508;2023-04-24T05:03:57;8;7;5
34240;PMS7003;20503;50.200;19.508;2023-04-24T05:09:05;7;7;5
34240;PMS7003;20503;50.200;19.508;2023-04-24T05:14:13;9;7;6
34240;PMS7003;20503;50.200;19.508;2023-04-24T05:19:21;8;8;6
34240;PMS7003;20503;50.200;19.508;2023-04-24T05:24:28;11;8;7
34240;PMS7003;20503;50.200;19.508;2023-04-24T05:29:36;7;7;6
34240;PMS7003;20503;50.200;19.508;2023-04-24T05:34:44;7;6;5
34240;PMS7003;20503;50.200;19.508;2023-04-24T05:39:52;7;6;5
34240;PMS7003;20503;50.200;19.508;2023-04-24T05:44:59;8;8;6
34240;PMS7003;20503;50.200;19.508;2023-04-24T05:50:07;8;6;5
34240;PMS7003;20503;50.200;19.508;2023-04-24T05:55:14;6;6;4
34240;PMS7003;20503;50.200;19.508;2023-04-24T06:00:21;8;7;5
34240;PMS7003;20503;50.200;19.508;2023-04-24T06:05:29;6;6;5
34240;PMS7003;20503;50.200;19.508;2023-04-24T06:10:36;8;8;6
34240;PMS7003;20503;50.200;19.508;2023-04-24T06:15:43;10;8;7
34240;PMS7003;20503;50.200;19.508;2023-04-24T06:20:51;9;8;7
34240;PMS7003;20503;50.200;19.508;2023-04-24T06:25:59;11;9;7
34240;PMS7003;20503;50.200;19.508;2023-04-24T06:31:06;8;6;5
34240;PMS7003;20503;50.200;19.508;2023-04-24T06:36:14;8;7;5
34240;PMS7003;20503;50.200;19.508;2023-04-24T06:41:21;6;6;5
34240;PMS7003;20503;50.200;19.508;2023-04-24T06:46:29;5;5;4
34240;PMS7003;20503;50.200;19.508;2023-04-24T06:51:37;7;5;5
34240;PMS7003;20503;50.200;19.508;2023-04-24T06:56:45;6;6;4
34240;PMS7003;20503;50.200;19.508;2023-04-24T07:01:54;9;8;7
34240;PMS7003;20503;50.200;19.508;2023-04-24T07:07:02;6;5;4
34240;PMS7003;20503;50.200;19.508;2023-04-24T07:12:10;5;5;4
34240;PMS7003;20503;50.200;19.508;2023-04-24T07:17:17;8;8;7
34240;PMS7003;20503;50.200;19.508;2023-04-24T07:22:25;6;5;5
34240;PMS7003;20503;50.200;19.508;2023-04-24T07:27:34;5;5;4
34240;PMS7003;20503;50.200;19.508;2023-04-24T07:32:41;6;4;4
34240;PMS7003;20503;50.200;19.508;2023-04-24T07:37:50;5;4;4
34240;PMS7003;20503;50.200;19.508;2023-04-24T07:42:58;5;5;5
34240;PMS7003;20503;50.200;19.508;2023-04-24T07:48:06;5;5;4
34240;PMS7003;20503;50.200;19.508;2023-04-24T07:53:14;5;5;4
34240;PMS7003;20503;50.200;19.508;2023-04-24T07:58:22;6;6;5
34240;PMS7003;20503;50.200;19.508;2023-04-24T08:03:30;7;6;5
34240;PMS7003;20503;50.200;19.508;2023-04-24T08:08:38;5;4;3
34240;PMS7003;20503;50.200;19.508;2023-04-24T08:13:46;7;6;5
34240;PMS7003;20503;50.200;19.508;2023-04-24T08:18:54;6;6;4
34240;PMS7003;20503;50.200;19.508;2023-04-24T08:24:02;7;5;4
34240;PMS7003;20503;50.200;19.508;2023-04-24T08:29:10;8;7;5
34240;PMS7003;20503;50.200;19.508;2023-04-24T08:34:18;7;7;5
34240;PMS7003;20503;50.200;19.508;2023-04-24T08:39:26;7;6;5
34240;PMS7003;20503;50.200;19.508;2023-04-24T08:44:34;5;5;4
34240;PMS7003;20503;50.200;19.508;2023-04-24T08:49:41;7;6;5
34240;PMS7003;20503;50.200;19.508;2023-04-24T08:54:50;5;5;5
34240;PMS7003;20503;50.200;19.508;2023-04-24T08:59:58;6;6;5
34240;PMS7003;20503;50.200;19.508;2023-04-24T09:05:06;8;6;5
34240;PMS7003;20503;50.200;19.508;2023-04-24T09:10:13;5;5;4
34240;PMS7003;20503;50.200;19.508;2023-04-24T09:15:22;6;6;5
34240;PMS7003;20503;50.200;19.508;2023-04-24T09:20:30;7;7;5
34240;PMS7003;20503;50.200;19.508;2023-04-24T09:25:38;6;6;5
34240;PMS7003;20503;50.200;19.508;2023-04-24T09:30:46;11;11;9
34240;PMS7003;20503;50.200;19.508;2023-04-24T09:35:54;6;5;4
34240;PMS7003;20503;50.200;19.508;2023-04-24T09:41:02;5;5;4
34240;PMS7003;20503;50.200;19.508;2023-04-24T09:46:08;6;6;5
34240;PMS7003;20503;50.200;19.508;2023-04-24T09:51:16;5;5;4
34240;PMS7003;20503;50.200;19.508;2023-04-24T09:56:23;5;5;5
34240;PMS7003;20503;50.200;19.508;2023-04-24T10:01:31;8;7;6
34240;PMS7003;20503;50.200;19.508;2023-04-24T10:06:38;9;8;6
34240;PMS7003;20503;50.200;19.508;2023-04-24T10:11:49;10;8;7
34240;PMS7003;20503;50.200;19.508;2023-04-24T10:16:53;5;4;3
34240;PMS7003;20503;50.200;19.508;2023-04-24T10:22:00;8;6;5
34240;PMS7003;20503;50.200;19.508;2023-04-24T10:27:07;10;8;7
34240;PMS7003;20503;50.200;19.508;2023-04-24T10:32:15;7;5;4
34240;PMS7003;20503;50.200;19.508;2023-04-24T10:37:22;5;5;4
34240;PMS7003;20503;50.200;19.508;2023-04-24T10:42:30;7;6;4
34240;PMS7003;20503;50.200;19.508;2023-04-24T10:47:41;7;6;4
34240;PMS7003;20503;50.200;19.508;2023-04-24T10:52:45;4;4;4
34240;PMS7003;20503;50.200;19.508;2023-04-24T11:03:06;6;5;4
34240;PMS7003;20503;50.200;19.508;2023-04-24T11:08:13;8;6;5
34240;PMS7003;20503;50.200;19.508;2023-04-24T11:13:17;5;5;5
34240;PMS7003;20503;50.200;19.508;2023-04-24T11:18:22;6;6;5
34240;PMS7003;20503;50.200;19.508;2023-04-24T11:23:35;5;4;3
34240;PMS7003;20503;50.200;19.508;2023-04-24T11:28:45;8;8;5
34240;PMS7003;20503;50.200;19.508;2023-04-24T11:33:48;6;6;5
34240;PMS7003;20503;50.200;19.508;2023-04-24T11:38:52;7;7;6
34240;PMS7003;20503;50.200;19.508;2023-04-24T11:44:00;7;6;5
34240;PMS7003;20503;50.200;19.508;2023-04-24T11:49:07;10;10;8
34240;PMS7003;20503;50.200;19.508;2023-04-24T11:54:15;11;10;7
34240;PMS7003;20503;50.200;19.508;2023-04-24T11:59:23;9;9;8
34240;PMS7003;20503;50.200;19.508;2023-04-24T12:04:37;10;10;8
34240;PMS7003;20503;50.200;19.508;2023-04-24T12:09:45;15;9;8
34240;PMS7003;20503;50.200;19.508;2023-04-24T12:14:55;12;11;8
34240;PMS7003;20503;50.200;19.508;2023-04-24T12:20:03;9;9;8
34240;PMS7003;20503;50.200;19.508;2023-04-24T12:25:06;11;11;9
34240;PMS7003;20503;50.200;19.508;2023-04-24T12:35:19;10;10;8
34240;PMS7003;20503;50.200;19.508;2023-04-24T12:40:25;8;8;7
34240;PMS7003;20503;50.200;19.508;2023-04-24T12:45:33;11;9;7
34240;PMS7003;20503;50.200;19.508;2023-04-24T12:50:41;11;10;7
34240;PMS7003;20503;50.200;19.508;2023-04-24T12:55:48;9;9;7
34240;PMS7003;20503;50.200;19.508;2023-04-24T13:00:56;22;16;12
34240;PMS7003;20503;50.200;19.508;2023-04-24T13:06:03;12;11;8
34240;PMS7003;20503;50.200;19.508;2023-04-24T13:11:11;13;12;9
34240;PMS7003;20503;50.200;19.508;2023-04-24T13:16:19;12;9;7
34240;PMS7003;20503;50.200;19.508;2023-04-24T13:21:27;11;11;10
34240;PMS7003;20503;50.200;19.508;2023-04-24T13:26:35;11;10;8
34240;PMS7003;20503;50.200;19.508;2023-04-24T13:31:42;12;10;8
34240;PMS7003;20503;50.200;19.508;2023-04-24T13:36:53;12;9;8
34240;PMS7003;20503;50.200;19.508;2023-04-24T13:41:58;11;10;7
34240;PMS7003;20503;50.200;19.508;2023-04-24T13:47:06;9;8;6
34240;PMS7003;20503;50.200;19.508;2023-04-24T13:52:13;12;11;8
34240;PMS7003;20503;50.200;19.508;2023-04-24T13:57:21;10;8;6
34240;PMS7003;20503;50.200;19.508;2023-04-24T14:02:29;6;4;3
34240;PMS7003;20503;50.200;19.508;2023-04-24T14:07:38;6;5;3
34240;PMS7003;20503;50.200;19.508;2023-04-24T14:12:45;7;5;5
34240;PMS7003;20503;50.200;19.508;2023-04-24T14:17:53;6;5;3
34240;PMS7003;20503;50.200;19.508;2023-04-24T14:23:01;4;4;3
34240;PMS7003;20503;50.200;19.508;2023-04-24T14:28:09;4;4;3
34240;PMS7003;20503;50.200;19.508;2023-04-24T14:33:17;1;1;1
34240;PMS7003;20503;50.200;19.508;2023-04-24T14:38:24;2;0;0
34240;PMS7003;20503;50.200;19.508;2023-04-24T14:43:32;1;1;1
34240;PMS7003;20503;50.200;19.508;2023-04-24T14:48:40;1;1;1
34240;PMS7003;20503;50.200;19.508;2023-04-24T14:53:48;3;2;1
34240;PMS7003;20503;50.200;19.508;2023-04-24T14:58:56;4;2;2
34240;PMS7003;20503;50.200;19.508;2023-04-24T15:04:04;4;2;1
34240;PMS7003;20503;50.200;19.508;2023-04-24T15:09:12;3;3;2
34240;PMS7003;20503;50.200;19.508;2023-04-24T15:14:20;3;2;2
34240;PMS7003;20503;50.200;19.508;2023-04-24T15:19:28;5;3;2
34240;PMS7003;20503;50.200;19.508;2023-04-24T15:24:36;4;3;2
34240;PMS7003;20503;50.200;19.508;2023-04-24T15:29:44;2;2;2
34240;PMS7003;20503;50.200;19.508;2023-04-24T15:34:52;6;3;3
34240;PMS7003;20503;50.200;19.508;2023-04-24T15:40:00;4;3;3
34240;PMS7003;20503;50.200;19.508;2023-04-24T15:45:08;4;3;2
34240;PMS7003;20503;50.200;19.508;2023-04-24T15:50:16;2;2;1
34240;PMS7003;20503;50.200;19.508;2023-04-24T15:55:24;5;1;1
34240;PMS7003;20503;50.200;19.508;2023-04-24T16:00:32;1;1;1
34240;PMS7003;20503;50.200;19.508;2023-04-24T16:05:40;1;1;1
34240;PMS7003;20503;50.200;19.508;2023-04-24T16:10:48;2;2;1
34240;PMS7003;20503;50.200;19.508;2023-04-24T16:15:56;3;3;2
34240;PMS7003;20503;50.200;19.508;2023-04-24T16:21:04;2;1;1
34240;PMS7003;20503;50.200;19.508;2023-04-24T16:26:12;2;0;0
34240;PMS7003;20503;50.200;19.508;2023-04-24T16:31:20;1;1;1
34240;PMS7003;20503;50.200;19.508;2023-04-24T16:36:28;1;1;1
34240;PMS7003;20503;50.200;19.508;2023-04-24T16:41:36;3;2;1
34240;PMS7003;20503;50.200;19.508;2023-04-24T16:46:44;1;1;1
34240;PMS7003;20503;50.200;19.508;2023-04-24T16:55:47;6;3;3
34240;PMS7003;20503;50.200;19.508;2023-04-24T17:00:56;2;2;1
34240;PMS7003;20503;50.200;19.508;2023-04-24T17:06:04;3;3;2
34240;PMS7003;20503;50.200;19.508;2023-04-24T17:11:12;3;3;1
34240;PMS7003;20503;50.200;19.508;2023-04-24T17:16:20;3;3;2
34240;PMS7003;20503;50.200;19.508;2023-04-24T17:21:28;4;3;2
34240;PMS7003;20503;50.200;19.508;2023-04-24T17:26:36;5;3;2
34240;PMS7003;20503;50.200;19.508;2023-04-24T17:31:44;5;4;3
34240;PMS7003;20503;50.200;19.508;2023-04-24T17:36:52;4;4;4
34240;PMS7003;20503;50.200;19.508;2023-04-24T17:42:00;10;9;6
34240;PMS7003;20503;50.200;19.508;2023-04-24T17:47:08;15;12;9
34240;PMS7003;20503;50.200;19.508;2023-04-24T17:52:16;8;7;5
34240;PMS7003;20503;50.200;19.508;2023-04-24T17:57:24;9;6;4
34240;PMS7003;20503;50.200;19.508;2023-04-24T18:02:31;5;5;4
34240;PMS7003;20503;50.200;19.508;2023-04-24T18:07:39;4;3;3
34240;PMS7003;20503;50.200;19.508;2023-04-24T18:12:48;8;6;4
34240;PMS7003;20503;50.200;19.508;2023-04-24T18:17:55;20;17;12
34240;PMS7003;20503;50.200;19.508;2023-04-24T18:23:03;31;24;15
34240;PMS7003;20503;50.200;19.508;2023-04-24T18:28:12;51;40;25
34240;PMS7003;20503;50.200;19.508;2023-04-24T18:33:19;39;29;18
34240;PMS7003;20503;50.200;19.508;2023-04-24T18:38:27;33;27;16
34240;PMS7003;20503;50.200;19.508;2023-04-24T18:43:35;22;15;11
34240;PMS7003;20503;50.200;19.508;2023-04-24T18:48:43;15;15;8
34240;PMS7003;20503;50.200;19.508;2023-04-24T18:53:51;17;13;10
34240;PMS7003;20503;50.200;19.508;2023-04-24T18:58:58;10;8;6
34240;PMS7003;20503;50.200;19.508;2023-04-24T19:04:06;11;9;7
34240;PMS7003;20503;50.200;19.508;2023-04-24T19:09:13;7;7;6
34240;PMS7003;20503;50.200;19.508;2023-04-24T19:14:21;8;7;6
34240;PMS7003;20503;50.200;19.508;2023-04-24T19:19:30;20;16;10
34240;PMS7003;20503;50.200;19.508;2023-04-24T19:24:37;36;27;17
34240;PMS7003;20503;50.200;19.508;2023-04-24T19:29:45;24;18;12
34240;PMS7003;20503;50.200;19.508;2023-04-24T19:34:52;21;14;10
34240;PMS7003;20503;50.200;19.508;2023-04-24T19:40:00;29;23;14
34240;PMS7003;20503;50.200;19.508;2023-04-24T19:45:07;27;20;14
34240;PMS7003;20503;50.200;19.508;2023-04-24T19:50:16;31;24;14
34240;PMS7003;20503;50.200;19.508;2023-04-24T19:55:23;19;17;12
34240;PMS7003;20503;50.200;19.508;2023-04-24T20:00:31;16;16;10
34240;PMS7003;20503;50.200;19.508;2023-04-24T20:05:39;26;21;15
34240;PMS7003;20503;50.200;19.508;2023-04-24T20:10:46;24;20;14
34240;PMS7003;20503;50.200;19.508;2023-04-24T20:15:54;25;22;13
34240;PMS7003;20503;50.200;19.508;2023-04-24T20:21:01;21;19;14
34240;PMS7003;20503;50.200;19.508;2023-04-24T20:26:09;26;19;13
34240;PMS7003;20503;50.200;19.508;2023-04-24T20:31:17;27;21;14
34240;PMS7003;20503;50.200;19.508;2023-04-24T20:36:25;34;25;16
34240;PMS7003;20503;50.200;19.508;2023-04-24T20:41:32;34;26;16
34240;PMS7003;20503;50.200;19.508;2023-04-24T20:46:40;31;25;17
34240;PMS7003;20503;50.200;19.508;2023-04-24T20:51:48;35;26;17
34240;PMS7003;20503;50.200;19.508;2023-04-24T20:56:56;37;28;17
34240;PMS7003;20503;50.200;19.508;2023-04-24T21:02:03;33;25;16
34240;PMS7003;20503;50.200;19.508;2023-04-24T21:07:10;35;25;16
34240;PMS7003;20503;50.200;19.508;2023-04-24T21:12:18;35;27;16
34240;PMS7003;20503;50.200;19.508;2023-04-24T21:17:26;31;25;17
34240;PMS7003;20503;50.200;19.508;2023-04-24T21:22:34;33;26;17
34240;PMS7003;20503;50.200;19.508;2023-04-24T21:27:42;34;28;17
34240;PMS7003;20503;50.200;19.508;2023-04-24T21:32:50;30;25;17
34240;PMS7003;20503;50.200;19.508;2023-04-24T21:37:57;38;29;17
34240;PMS7003;20503;50.200;19.508;2023-04-24T21:43:05;38;29;18
34240;PMS7003;20503;50.200;19.508;2023-04-24T21:48:13;37;28;18
34240;PMS7003;20503;50.200;19.508;2023-04-24T21:53:21;39;29;18
34240;PMS7003;20503;50.200;19.508;2023-04-24T21:58:29;38;29;18
34240;PMS7003;20503;50.200;19.508;2023-04-24T22:03:38;35;28;19
34240;PMS7003;20503;50.200;19.508;2023-04-24T22:08:46;41;31;18
34240;PMS7003;20503;50.200;19.508;2023-04-24T22:13:53;37;29;18
34240;PMS7003;20503;50.200;19.508;2023-04-24T22:19:01;35;28;18
34240;PMS7003;20503;50.200;19.508;2023-04-24T22:24:09;37;30;18
34240;PMS7003;20503;50.200;19.508;2023-04-24T22:29:17;38;29;18
34240;PMS7003;20503;50.200;19.508;2023-04-24T22:34:25;40;31;19
34240;PMS7003;20503;50.200;19.508;2023-04-24T22:39:32;32;24;14
34240;PMS7003;20503;50.200;19.508;2023-04-24T22:44:40;8;8;6
34240;PMS7003;20503;50.200;19.508;2023-04-24T22:49:47;7;6;4
34240;PMS7003;20503;50.200;19.508;2023-04-24T22:54:55;4;4;3
34240;PMS7003;20503;50.200;19.508;2023-04-24T23:00:03;2;2;2
34240;PMS7003;20503;50.200;19.508;2023-04-24T23:05:12;8;4;3
34240;PMS7003;20503;50.200;19.508;2023-04-24T23:10:17;5;4;2
34240;PMS7003;20503;50.200;19.508;2023-04-24T23:15:24;5;3;2
34240;PMS7003;20503;50.200;19.508;2023-04-24T23:20:32;1;1;1
34240;PMS7003;20503;50.200;19.508;2023-04-24T23:25:39;2;1;0
34240;PMS7003;20503;50.200;19.508;2023-04-24T23:30:47;2;1;1
34240;PMS7003;20503;50.200;19.508;2023-04-24T23:35:55;1;1;1
34240;PMS7003;20503;50.200;19.508;2023-04-24T23:41:02;2;2;1
34240;PMS7003;20503;50.200;19.508;2023-04-24T23:46:09;5;3;2
34240;PMS7003;20503;50.200;19.508;2023-04-24T23:51:17;5;4;3
34240;PMS7003;20503;50.200;19.508;2023-04-24T23:56:25;5;5;2
